Terminal Aerodrome Forecast
Issued by NWS Buffalo, NY

Home | Current Version | Previous Version | Text Only | Print | Product List | Glossary On
Versions: 1 2 3 4 5 6 7 8 9 10 11 12 13 14 15 16 17 18 19 20 21
000
FTUS41 KBUF 292000 AAA
TAFART
TAF AMD
KART 292046Z 2921/3018 17012G21KT P6SM VCSH SCT070 OVC080
     FM292300 17014KT 4SM -SN OVC040
     FM300300 22010KT 2SM -SN OVC012
     FM301100 29011KT 3SM -SHSN OVC012
     FM301500 33013KT 5SM -SHSN OVC012=

USA.gov is the U.S. government's official web portal to all federal, state and local government web resources and services.